Time;durP1;ratioP1;P1;durP2;ratioP2;P2;SDS_P1;SDS_P2;PMS_P1;PMS_P2;Temp;Humidity;BMP_temperature;BMP_pressure;BME280_temperature;BME280_humidity;BME280_pressure;Samples;Min_cycle;Max_cycle;Signal;HPM_P1;HPM_P2
2021/05/11 00:01:50;;;;;;;6.30;3.08;;;;;;;;;;4974074;28;20027;-74
2021/05/11 00:04:16;;;;;;;5.47;2.80;;;;;;;;;;4977293;28;20046;-74
2021/05/11 00:06:42;;;;;;;8.25;3.28;;;;;;;;;;4976854;28;20033;-75
2021/05/11 00:09:08;;;;;;;10.00;3.28;;;;;;;;;;4970845;28;20037;-73
2021/05/11 00:11:35;;;;;;;5.45;2.70;;;;;;;;;;4972876;28;20031;-73
2021/05/11 00:14:03;;;;;;;6.00;3.08;;;;;;;;;;4973684;28;20030;-75
2021/05/11 00:16:29;;;;;;;5.18;3.20;;;;;;;;;;4973769;28;20026;-74
2021/05/11 00:18:55;;;;;;;4.70;2.88;;;;;;;;;;4972068;28;20102;-74
2021/05/11 00:21:22;;;;;;;4.68;2.90;;;;;;;;;;4972357;28;20486;-74
2021/05/11 00:23:48;;;;;;;6.32;3.00;;;;;;;;;;4976502;28;20465;-74
2021/05/11 00:26:14;;;;;;;9.20;3.35;;;;;;;;;;4976748;28;20093;-75
2021/05/11 00:28:40;;;;;;;5.85;3.10;;;;;;;;;;4966857;28;20019;-75
2021/05/11 00:31:06;;;;;;;7.38;3.35;;;;;;;;;;4975061;28;20082;-74
2021/05/11 00:33:34;;;;;;;9.65;3.17;;;;;;;;;;4969695;28;20035;-74
2021/05/11 00:36:02;;;;;;;7.97;3.00;;;;;;;;;;4970496;28;20053;-74
2021/05/11 00:38:29;;;;;;;6.03;2.90;;;;;;;;;;4969305;28;20047;-74
2021/05/11 00:40:55;;;;;;;3.40;2.65;;;;;;;;;;4973986;28;20042;-73
2021/05/11 00:43:21;;;;;;;6.35;3.05;;;;;;;;;;4962450;28;20027;-73
2021/05/11 00:45:47;;;;;;;6.18;2.90;;;;;;;;;;4976917;28;20110;-73
2021/05/11 00:48:14;;;;;;;6.78;2.95;;;;;;;;;;4977175;28;20552;-73
2021/05/11 00:50:40;;;;;;;5.75;3.00;;;;;;;;;;4965471;28;20046;-73
2021/05/11 00:53:06;;;;;;;7.75;3.20;;;;;;;;;;4966699;28;20023;-74
2021/05/11 00:55:32;;;;;;;6.57;3.20;;;;;;;;;;4976189;28;20027;-72
2021/05/11 00:58:02;;;;;;;7.30;2.83;;;;;;;;;;4972635;28;20023;-73
2021/05/11 01:00:30;;;;;;;8.20;3.40;;;;;;;;;;4963709;28;20400;-73
2021/05/11 01:02:56;;;;;;;10.00;3.60;;;;;;;;;;4976458;28;20054;-73
2021/05/11 01:05:22;;;;;;;8.43;3.22;;;;;;;;;;4970620;28;20121;-73
2021/05/11 01:07:49;;;;;;;5.18;3.10;;;;;;;;;;4961628;28;20023;-73
2021/05/11 01:10:15;;;;;;;9.82;3.40;;;;;;;;;;4973857;28;20051;-73
2021/05/11 01:12:41;;;;;;;12.05;3.03;;;;;;;;;;4974279;28;20026;-73
2021/05/11 01:15:07;;;;;;;4.45;2.80;;;;;;;;;;4958307;28;20474;-73
2021/05/11 01:17:36;;;;;;;8.02;3.10;;;;;;;;;;4972309;28;20018;-73
2021/05/11 01:20:05;;;;;;;6.38;2.90;;;;;;;;;;4957627;28;20028;-73
2021/05/11 01:23:27;;;;;;;7.20;3.33;;;;;;;;;;4974773;28;20107;-73
2021/05/11 01:25:26;;;;;;;6.03;2.95;;;;;;;;;;4963185;28;20037;-74
2021/05/11 01:30:49;;;;;;;7.47;2.90;;;;;;;;;;4976296;28;20042;-73
2021/05/11 01:55:06;;;;;;;5.72;2.90;;;;;;;;;;4962170;28;20094;-73
2021/05/11 02:25:04;;;;;;;7.00;2.88;;;;;;;;;;4921272;29;20646;-75
2021/05/11 02:27:30;;;;;;;4.25;2.88;;;;;;;;;;4917519;29;20064;-73
2021/05/11 02:30:00;;;;;;;6.82;2.90;;;;;;;;;;4926686;29;20416;-74
2021/05/11 02:32:26;;;;;;;7.38;3.17;;;;;;;;;;4904264;29;20486;-74
2021/05/11 02:34:52;;;;;;;7.60;3.10;;;;;;;;;;4913604;29;20039;-74
2021/05/11 02:37:20;;;;;;;3.78;2.53;;;;;;;;;;4917716;29;20035;-73
2021/05/11 02:39:46;;;;;;;6.65;3.03;;;;;;;;;;4916405;29;20101;-74
2021/05/11 02:42:13;;;;;;;6.45;2.83;;;;;;;;;;4921570;29;20059;-72
2021/05/11 02:44:42;;;;;;;5.93;3.10;;;;;;;;;;4917050;29;20035;-74
2021/05/11 02:47:08;;;;;;;6.63;2.70;;;;;;;;;;4917396;29;20136;-73
2021/05/11 02:49:37;;;;;;;7.07;3.25;;;;;;;;;;4913800;29;20498;-74
2021/05/11 02:52:03;;;;;;;5.38;3.17;;;;;;;;;;4915294;29;20043;-73
2021/05/11 02:54:29;;;;;;;7.25;3.08;;;;;;;;;;4917282;29;20028;-74
2021/05/11 02:56:55;;;;;;;8.05;2.78;;;;;;;;;;4956997;28;20512;-72
2021/05/11 02:59:21;;;;;;;6.97;2.88;;;;;;;;;;4977038;28;20386;-73
2021/05/11 03:01:47;;;;;;;4.53;2.70;;;;;;;;;;4982764;28;20570;-72
2021/05/11 03:04:13;;;;;;;5.05;3.00;;;;;;;;;;4972518;28;20097;-73
2021/05/11 03:06:40;;;;;;;6.18;2.90;;;;;;;;;;4974444;28;20384;-76
2021/05/11 03:09:06;;;;;;;5.63;2.95;;;;;;;;;;4988204;28;20023;-73
2021/05/11 03:11:32;;;;;;;5.07;3.15;;;;;;;;;;4969811;28;20039;-73
2021/05/11 03:13:58;;;;;;;6.05;2.95;;;;;;;;;;4971686;28;20086;-72
2021/05/11 03:16:26;;;;;;;5.63;2.90;;;;;;;;;;4960059;28;20374;-72
2021/05/11 03:18:52;;;;;;;8.07;3.40;;;;;;;;;;4970008;28;20552;-72
2021/05/11 03:21:18;;;;;;;7.30;2.88;;;;;;;;;;4973747;28;20030;-72
2021/05/11 03:23:44;;;;;;;6.82;2.80;;;;;;;;;;4969143;28;20041;-73
2021/05/11 03:26:10;;;;;;;5.53;2.90;;;;;;;;;;4959136;28;20023;-76
2021/05/11 03:28:38;;;;;;;5.55;2.90;;;;;;;;;;4969818;28;20034;-73
2021/05/11 03:31:04;;;;;;;5.00;2.67;;;;;;;;;;4964995;28;20038;-73
2021/05/11 03:33:30;;;;;;;5.38;3.00;;;;;;;;;;4966651;28;20042;-73
2021/05/11 03:35:56;;;;;;;7.80;2.90;;;;;;;;;;4972145;28;20022;-73
2021/05/11 03:38:22;;;;;;;7.93;3.30;;;;;;;;;;4967303;28;20038;-72
2021/05/11 03:40:49;;;;;;;5.60;2.92;;;;;;;;;;4974681;28;20042;-72
2021/05/11 03:43:21;;;;;;;7.22;2.92;;;;;;;;;;4963309;28;20030;-76
2021/05/11 03:45:57;;;;;;;3.58;2.45;;;;;;;;;;4984000;28;20389;-72
2021/05/11 03:48:23;;;;;;;5.18;3.08;;;;;;;;;;4973669;28;20084;-72
2021/05/11 03:50:49;;;;;;;4.53;2.53;;;;;;;;;;4975635;28;20090;-71
2021/05/11 03:53:18;;;;;;;3.50;2.58;;;;;;;;;;4967831;28;20488;-78
2021/05/11 03:55:45;;;;;;;8.27;3.00;;;;;;;;;;4986980;28;20018;-78
2021/05/11 03:58:13;;;;;;;7.85;2.95;;;;;;;;;;4990932;28;20034;-76
2021/05/11 04:00:44;;;;;;;8.48;2.60;;;;;;;;;;4977346;28;20503;-76
2021/05/11 04:03:30;;;;;;;5.55;2.67;;;;;;;;;;4973263;28;20023;-77
2021/05/11 04:05:58;;;;;;;7.30;2.60;;;;;;;;;;4979468;28;20034;-75
2021/05/11 04:08:44;;;;;;;5.80;2.67;;;;;;;;;;4974576;28;20936;-74
2021/05/11 04:16:25;;;;;;;6.93;2.70;;;;;;;;;;4974246;28;20038;-72
2021/05/11 04:18:52;;;;;;;6.47;3.00;;;;;;;;;;4969768;28;20022;-74
2021/05/11 04:21:18;;;;;;;6.03;2.50;;;;;;;;;;4963229;28;20030;-73
2021/05/11 04:23:45;;;;;;;6.50;2.70;;;;;;;;;;4969245;28;20027;-69
2021/05/11 04:26:11;;;;;;;4.60;2.97;;;;;;;;;;4972396;28;20465;-67
2021/05/11 04:28:47;;;;;;;6.65;3.33;;;;;;;;;;4970415;28;20588;-70
2021/05/11 04:31:23;;;;;;;15.43;3.45;;;;;;;;;;4968455;28;20074;-73
2021/05/11 04:33:49;;;;;;;7.13;2.90;;;;;;;;;;4968885;28;20101;-72
2021/05/11 04:36:15;;;;;;;4.53;2.72;;;;;;;;;;4969911;28;20027;-72
2021/05/11 04:38:42;;;;;;;7.30;2.70;;;;;;;;;;4977070;28;20026;-75
2021/05/11 04:41:08;;;;;;;9.07;2.63;;;;;;;;;;4975250;28;20467;-75
2021/05/11 04:43:36;;;;;;;4.50;2.50;;;;;;;;;;4981056;28;20477;-72
2021/05/11 04:46:28;;;;;;;5.38;2.28;;;;;;;;;;4955071;29;20126;-76
2021/05/11 04:48:54;;;;;;;5.65;2.70;;;;;;;;;;4957769;29;20135;-76
2021/05/11 04:51:21;;;;;;;8.15;3.05;;;;;;;;;;4937081;29;20198;-73
2021/05/11 04:53:50;;;;;;;5.68;2.47;;;;;;;;;;4931962;29;20065;-73
2021/05/11 04:56:19;;;;;;;5.57;2.55;;;;;;;;;;4949540;29;20031;-72
2021/05/11 04:58:50;;;;;;;5.75;2.70;;;;;;;;;;4935299;29;20035;-74
2021/05/11 05:01:18;;;;;;;7.10;2.58;;;;;;;;;;4954715;28;20035;-72
2021/05/11 05:03:47;;;;;;;3.72;2.53;;;;;;;;;;4937712;28;20026;-73
2021/05/11 05:06:14;;;;;;;9.93;2.75;;;;;;;;;;4932546;28;20039;-74
2021/05/11 05:08:40;;;;;;;7.10;3.00;;;;;;;;;;4936247;29;20043;-73
2021/05/11 05:11:06;;;;;;;9.55;2.55;;;;;;;;;;4960365;28;20051;-73
2021/05/11 05:13:32;;;;;;;7.32;2.72;;;;;;;;;;4948417;28;20116;-78
2021/05/11 05:15:59;;;;;;;6.72;2.75;;;;;;;;;;4957247;28;20097;-73
2021/05/11 05:18:33;;;;;;;15.65;3.20;;;;;;;;;;4957029;29;20252;-74
2021/05/11 05:21:03;;;;;;;5.35;2.65;;;;;;;;;;4956328;28;20104;-72
2021/05/11 05:23:32;;;;;;;10.73;2.78;;;;;;;;;;4951530;28;20110;-73
2021/05/11 05:26:03;;;;;;;7.93;2.83;;;;;;;;;;4949743;29;20023;-72
2021/05/11 05:28:29;;;;;;;11.60;3.10;;;;;;;;;;4945804;29;20074;-73
2021/05/11 05:31:02;;;;;;;5.60;2.70;;;;;;;;;;4967371;28;20123;-72
2021/05/11 05:33:43;;;;;;;9.52;2.90;;;;;;;;;;4965275;28;20106;-74
2021/05/11 05:36:09;;;;;;;5.90;3.20;;;;;;;;;;4962951;28;20027;-74
2021/05/11 05:38:39;;;;;;;7.68;3.30;;;;;;;;;;4972333;28;20515;-74
2021/05/11 05:41:09;;;;;;;10.88;3.40;;;;;;;;;;4967303;28;20054;-74
2021/05/11 05:43:35;;;;;;;7.78;3.13;;;;;;;;;;4968492;28;20034;-75
2021/05/11 05:46:09;;;;;;;7.35;3.20;;;;;;;;;;4972284;28;20052;-73
2021/05/11 05:48:35;;;;;;;7.88;3.35;;;;;;;;;;4971648;28;20054;-74
2021/05/11 05:51:03;;;;;;;9.40;3.30;;;;;;;;;;4971643;28;20086;-72
2021/05/11 05:53:39;;;;;;;7.90;3.15;;;;;;;;;;4968093;28;20035;-75
2021/05/11 05:56:06;;;;;;;15.20;3.80;;;;;;;;;;4968479;28;20037;-75
2021/05/11 05:58:32;;;;;;;7.78;2.85;;;;;;;;;;4970457;28;20030;-74
2021/05/11 06:01:02;;;;;;;7.70;2.80;;;;;;;;;;4969104;28;20095;-76
2021/05/11 06:03:40;;;;;;;30.50;3.55;;;;;;;;;;4965555;28;20073;-75
2021/05/11 06:06:07;;;;;;;8.75;2.55;;;;;;;;;;4968863;28;20061;-75
2021/05/11 06:08:34;;;;;;;6.72;2.78;;;;;;;;;;4969113;28;20177;-83
2021/05/11 06:13:42;;;;;;;13.65;2.95;;;;;;;;;;4967946;28;20116;-76
2021/05/11 06:18:53;;;;;;;8.25;2.90;;;;;;;;;;4967513;28;19917;-71
2021/05/11 06:21:19;;;;;;;8.27;3.00;;;;;;;;;;4965029;28;20046;-78
2021/05/11 06:23:45;;;;;;;10.30;2.97;;;;;;;;;;4969870;28;20240;-81
2021/05/11 06:26:13;;;;;;;5.43;3.33;;;;;;;;;;4973238;28;20023;-79
2021/05/11 06:28:40;;;;;;;6.50;3.00;;;;;;;;;;4971661;28;20042;-80
2021/05/11 06:31:07;;;;;;;5.53;2.92;;;;;;;;;;4968705;28;20493;-77
2021/05/11 06:33:36;;;;;;;6.60;2.90;;;;;;;;;;4971731;28;20037;-75
2021/05/11 06:36:02;;;;;;;6.68;2.95;;;;;;;;;;4974139;28;20074;-78
2021/05/11 06:38:28;;;;;;;9.57;3.15;;;;;;;;;;4972656;28;20027;-78
2021/05/11 06:40:57;;;;;;;8.43;3.35;;;;;;;;;;4973259;28;20030;-76
2021/05/11 06:43:29;;;;;;;5.10;2.85;;;;;;;;;;4970932;28;20027;-75
2021/05/11 06:49:33;;;;;;;5.15;2.80;;;;;;;;;;4972831;28;20089;-73
2021/05/11 06:53:53;;;;;;;9.48;3.15;;;;;;;;;;4970190;28;20027;-77
2021/05/11 06:56:20;;;;;;;8.55;3.20;;;;;;;;;;4974114;28;20112;-76
2021/05/11 06:58:46;;;;;;;5.72;3.10;;;;;;;;;;4971875;28;20031;-85
2021/05/11 07:01:19;;;;;;;10.85;3.05;;;;;;;;;;4950065;28;20765;-84
2021/05/11 07:03:45;;;;;;;12.57;3.28;;;;;;;;;;4970518;28;20027;-85
2021/05/11 07:06:13;;;;;;;8.88;3.00;;;;;;;;;;4969032;28;20062;-85
2021/05/11 07:08:46;;;;;;;9.30;3.00;;;;;;;;;;4970894;28;20027;-78
2021/05/11 07:13:48;;;;;;;8.68;3.20;;;;;;;;;;4988237;28;20061;-81
2021/05/11 07:16:14;;;;;;;9.73;3.20;;;;;;;;;;4991319;28;20027;-85
2021/05/11 07:18:40;;;;;;;23.65;4.10;;;;;;;;;;4970976;28;20496;-77
2021/05/11 07:21:06;;;;;;;7.30;3.42;;;;;;;;;;4984334;28;20041;-89
2021/05/11 07:23:33;;;;;;;6.93;3.20;;;;;;;;;;4987376;28;20072;-74
2021/05/11 07:31:18;;;;;;;7.75;3.22;;;;;;;;;;4990992;28;20042;-73
2021/05/11 07:33:47;;;;;;;5.70;3.40;;;;;;;;;;4992379;28;20030;-75
2021/05/11 07:36:13;;;;;;;7.53;3.17;;;;;;;;;;4989195;28;20026;-80
2021/05/11 07:38:43;;;;;;;7.32;3.08;;;;;;;;;;4990569;28;20018;-76
2021/05/11 07:41:12;;;;;;;7.82;2.97;;;;;;;;;;4993397;28;20089;-82
2021/05/11 07:43:40;;;;;;;9.00;3.03;;;;;;;;;;4988686;28;20030;-79
2021/05/11 08:15:52;;;;;;;7.07;3.22;;;;;;;;;;4941489;29;20152;-76
2021/05/11 08:29:10;;;;;;;16.63;3.60;;;;;;;;;;4967386;28;20037;-78
2021/05/11 08:31:36;;;;;;;9.82;3.30;;;;;;;;;;4971784;28;20551;-74
2021/05/11 08:34:02;;;;;;;32.97;4.18;;;;;;;;;;4972671;28;20030;-76
2021/05/11 08:36:29;;;;;;;8.77;3.60;;;;;;;;;;4968959;28;20039;-76
2021/05/11 08:38:57;;;;;;;7.70;3.17;;;;;;;;;;4969567;28;20026;-73
2021/05/11 08:41:23;;;;;;;7.35;3.20;;;;;;;;;;4962608;28;20122;-80
2021/05/11 08:43:50;;;;;;;7.93;3.15;;;;;;;;;;4971723;28;20449;-81
2021/05/11 08:46:16;;;;;;;12.30;3.95;;;;;;;;;;4968625;28;20110;-77
2021/05/11 08:48:42;;;;;;;5.82;3.15;;;;;;;;;;4976626;28;20072;-76
2021/05/11 08:51:16;;;;;;;8.35;3.50;;;;;;;;;;4963922;28;20078;-86
2021/05/11 09:26:14;;;;;;;8.15;3.30;;;;;;;;;;4967138;28;20033;-78
2021/05/11 09:28:49;;;;;;;6.35;3.25;;;;;;;;;;4970730;28;20516;-75
2021/05/11 09:34:04;;;;;;;15.55;3.50;;;;;;;;;;4970676;28;20046;-78
2021/05/11 09:45:16;;;;;;;12.98;3.67;;;;;;;;;;4973364;28;20046;-78
2021/05/11 10:48:31;;;;;;;11.00;3.70;;;;;;;;;;4968024;28;20515;-80
2021/05/11 10:50:58;;;;;;;7.97;3.30;;;;;;;;;;4971307;28;20051;-81
2021/05/11 10:53:31;;;;;;;8.68;3.30;;;;;;;;;;4967946;28;20543;-77
2021/05/11 10:56:17;;;;;;;8.07;3.30;;;;;;;;;;4970353;28;20042;-77
2021/05/11 10:59:02;;;;;;;8.60;3.33;;;;;;;;;;4973733;28;20098;-75
2021/05/11 11:01:36;;;;;;;8.15;3.00;;;;;;;;;;4970919;28;20038;-77
2021/05/11 11:04:22;;;;;;;5.90;3.28;;;;;;;;;;4956940;28;20437;-78
2021/05/11 11:07:08;;;;;;;11.35;3.40;;;;;;;;;;4972854;28;20393;-80
2021/05/11 11:09:38;;;;;;;7.63;3.05;;;;;;;;;;4961850;28;20408;-76
2021/05/11 11:12:07;;;;;;;9.23;3.17;;;;;;;;;;4966140;28;20126;-78
2021/05/11 11:14:37;;;;;;;7.85;3.33;;;;;;;;;;4969914;28;20031;-79
2021/05/11 11:17:04;;;;;;;8.93;3.60;;;;;;;;;;4961188;28;20113;-76
2021/05/11 11:19:33;;;;;;;7.03;3.40;;;;;;;;;;4965159;28;20035;-78
2021/05/11 11:23:32;;;;;;;10.18;3.40;;;;;;;;;;4969442;28;20546;-74
2021/05/11 11:24:46;;;;;;;7.47;3.30;;;;;;;;;;4971611;28;20034;-77
2021/05/11 11:27:13;;;;;;;8.77;3.50;;;;;;;;;;4975313;28;20023;-76
2021/05/11 11:29:42;;;;;;;9.45;3.17;;;;;;;;;;4970712;28;20106;-76
2021/05/11 11:35:13;;;;;;;7.35;3.55;;;;;;;;;;4862800;23;20057;-77
2021/05/11 11:37:40;;;;;;;38.47;5.40;;;;;;;;;;5032832;28;20029;-77
2021/05/11 11:40:11;;;;;;;7.55;3.30;;;;;;;;;;5010369;28;20442;-78
2021/05/11 11:42:44;;;;;;;7.80;3.40;;;;;;;;;;5025568;28;20026;-78
2021/05/11 11:45:11;;;;;;;8.30;3.78;;;;;;;;;;5038115;28;20029;-77
2021/05/11 11:47:50;;;;;;;12.73;4.25;;;;;;;;;;5016570;28;20025;-74
2021/05/11 11:50:17;;;;;;;10.90;3.78;;;;;;;;;;5033472;28;20032;-73
2021/05/11 12:00:27;;;;;;;11.77;3.85;;;;;;;;;;5050735;28;20074;-74
2021/05/11 12:02:54;;;;;;;8.25;3.53;;;;;;;;;;5049245;28;20032;-75
2021/05/11 12:05:22;;;;;;;9.10;3.67;;;;;;;;;;5049344;28;20119;-77
2021/05/11 12:10:48;;;;;;;7.03;3.55;;;;;;;;;;5028341;28;20538;-75
2021/05/11 12:13:18;;;;;;;10.93;3.78;;;;;;;;;;5027796;28;20121;-76
2021/05/11 12:15:44;;;;;;;9.52;3.65;;;;;;;;;;5022614;28;20046;-76
2021/05/11 12:18:17;;;;;;;11.32;4.15;;;;;;;;;;5027723;28;20075;-78
2021/05/11 12:20:43;;;;;;;8.97;3.77;;;;;;;;;;5028509;28;20542;-76
2021/05/11 12:23:16;;;;;;;9.32;3.72;;;;;;;;;;5011969;28;20271;-75
2021/05/11 12:25:43;;;;;;;7.28;3.50;;;;;;;;;;5027339;28;20033;-76
2021/05/11 12:28:10;;;;;;;21.85;4.13;;;;;;;;;;5024585;28;20025;-75
2021/05/11 12:30:40;;;;;;;15.70;3.70;;;;;;;;;;5022984;28;20200;-75
2021/05/11 12:33:09;;;;;;;11.18;3.35;;;;;;;;;;5027317;28;20113;-76
2021/05/11 12:35:35;;;;;;;8.15;3.30;;;;;;;;;;5008038;28;20103;-75
2021/05/11 12:38:04;;;;;;;12.07;3.53;;;;;;;;;;5008384;28;20030;-80
2021/05/11 12:40:50;;;;;;;8.27;3.40;;;;;;;;;;5008068;28;20546;-77
2021/05/11 12:43:16;;;;;;;17.40;3.60;;;;;;;;;;5006726;28;20084;-77
2021/05/11 12:45:52;;;;;;;9.57;3.70;;;;;;;;;;4990796;28;20489;-76
2021/05/11 12:48:18;;;;;;;10.70;3.83;;;;;;;;;;5025786;28;20411;-77
2021/05/11 12:50:45;;;;;;;10.38;4.03;;;;;;;;;;5028008;28;20025;-78
2021/05/11 12:53:54;;;;;;;12.80;3.60;;;;;;;;;;5027155;28;20029;-77
2021/05/11 12:56:31;;;;;;;8.70;3.78;;;;;;;;;;5025690;28;20033;-75
2021/05/11 12:59:07;;;;;;;21.38;4.28;;;;;;;;;;5027251;28;20026;-75
2021/05/11 13:25:56;;;;;;;8.40;3.15;;;;;;;;;;5028873;28;20052;-72
2021/05/11 13:29:34;;;;;;;8.63;3.33;;;;;;;;;;5029074;28;20036;-74
2021/05/11 13:31:55;;;;;;;5.88;3.58;;;;;;;;;;5015938;28;20049;-79
2021/05/11 13:34:11;;;;;;;11.15;4.03;;;;;;;;;;5024102;28;20049;-74
2021/05/11 13:36:39;;;;;;;28.38;3.95;;;;;;;;;;5033145;28;20490;-77
2021/05/11 13:39:05;;;;;;;11.00;4.05;;;;;;;;;;5031925;28;20031;-74
2021/05/11 13:41:32;;;;;;;16.00;4.15;;;;;;;;;;5033736;28;20034;-78
2021/05/11 13:43:58;;;;;;;15.75;4.15;;;;;;;;;;5031817;28;20030;-78
2021/05/11 13:46:24;;;;;;;16.50;3.90;;;;;;;;;;5035547;28;20053;-78
2021/05/11 13:48:51;;;;;;;10.73;3.50;;;;;;;;;;5032634;28;20387;-74
2021/05/11 13:53:44;;;;;;;20.00;4.40;;;;;;;;;;5030071;28;20029;-76
2021/05/11 14:04:21;;;;;;;10.65;3.33;;;;;;;;;;5034096;28;20045;-78
2021/05/11 14:06:47;;;;;;;14.95;4.00;;;;;;;;;;5034145;28;20109;-77
2021/05/11 14:09:13;;;;;;;15.90;3.47;;;;;;;;;;5032792;28;20031;-76
2021/05/11 14:11:40;;;;;;;6.93;3.78;;;;;;;;;;5033003;28;20029;-79
2021/05/11 14:14:08;;;;;;;34.13;5.15;;;;;;;;;;5029866;28;20021;-80
2021/05/11 14:16:34;;;;;;;8.32;4.15;;;;;;;;;;5029740;28;20026;-74
2021/05/11 14:19:00;;;;;;;15.55;3.92;;;;;;;;;;5031404;28;20466;-76
2021/05/11 14:21:27;;;;;;;9.57;3.75;;;;;;;;;;5030533;28;20033;-73
2021/05/11 14:23:55;;;;;;;8.18;3.67;;;;;;;;;;5029130;28;20399;-73
2021/05/11 14:26:21;;;;;;;9.55;3.67;;;;;;;;;;5033283;28;20117;-73
2021/05/11 14:28:47;;;;;;;53.40;5.97;;;;;;;;;;5031796;28;20024;-74
2021/05/11 14:31:15;;;;;;;19.23;3.47;;;;;;;;;;5033947;28;20534;-70
2021/05/11 14:33:42;;;;;;;22.70;3.88;;;;;;;;;;5025675;28;20112;-72
2021/05/11 14:36:08;;;;;;;15.75;3.85;;;;;;;;;;5028696;28;20037;-71
2021/05/11 14:38:35;;;;;;;8.50;3.35;;;;;;;;;;5032392;28;20025;-72
2021/05/11 14:41:03;;;;;;;9.57;3.53;;;;;;;;;;5031230;28;20044;-72
2021/05/11 14:43:33;;;;;;;10.80;3.58;;;;;;;;;;5031543;28;20465;-70
2021/05/11 14:45:59;;;;;;;13.77;4.15;;;;;;;;;;5031083;28;20468;-71
2021/05/11 14:48:26;;;;;;;8.27;3.58;;;;;;;;;;5024927;28;20025;-73
2021/05/11 14:50:53;;;;;;;14.98;3.42;;;;;;;;;;5031272;28;20057;-75
2021/05/11 14:53:19;;;;;;;12.68;3.78;;;;;;;;;;5029628;28;20033;-78
2021/05/11 14:55:45;;;;;;;6.75;3.30;;;;;;;;;;5033185;28;20018;-74
2021/05/11 14:58:11;;;;;;;8.23;3.15;;;;;;;;;;5020830;28;20033;-78
2021/05/11 15:00:37;;;;;;;13.45;3.33;;;;;;;;;;5025424;28;20043;-74
2021/05/11 15:03:03;;;;;;;7.93;3.28;;;;;;;;;;5023616;28;20105;-77
2021/05/11 15:05:29;;;;;;;19.27;4.10;;;;;;;;;;5028316;28;20053;-79
2021/05/11 15:07:55;;;;;;;15.20;4.57;;;;;;;;;;5029470;28;20026;-77
2021/05/11 15:10:22;;;;;;;8.70;4.15;;;;;;;;;;5034637;28;20053;-79
2021/05/11 15:12:50;;;;;;;14.27;3.72;;;;;;;;;;5032384;28;20041;-75
2021/05/11 15:15:20;;;;;;;13.13;3.40;;;;;;;;;;5029322;28;20025;-79
2021/05/11 15:20:13;;;;;;;10.95;3.83;;;;;;;;;;5029644;28;20022;-79
2021/05/11 15:22:39;;;;;;;11.23;3.33;;;;;;;;;;5033987;28;20026;-77
2021/05/11 15:25:05;;;;;;;8.48;2.80;;;;;;;;;;5027928;28;20199;-75
2021/05/11 15:27:33;;;;;;;19.40;3.83;;;;;;;;;;5033114;28;20096;-75
2021/05/11 15:29:59;;;;;;;10.65;3.30;;;;;;;;;;5028876;28;20077;-78
2021/05/11 15:32:40;;;;;;;12.18;3.78;;;;;;;;;;5034013;28;20364;-78
2021/05/11 15:35:11;;;;;;;20.60;4.15;;;;;;;;;;5030662;28;20068;-78
2021/05/11 15:37:37;;;;;;;11.43;3.13;;;;;;;;;;5039020;28;20037;-82
2021/05/11 15:40:09;;;;;;;14.23;4.18;;;;;;;;;;5030090;28;20045;-78
2021/05/11 15:42:35;;;;;;;10.80;3.83;;;;;;;;;;5016795;28;20030;-75
2021/05/11 15:45:02;;;;;;;14.70;3.40;;;;;;;;;;5037415;28;20036;-74
2021/05/11 15:47:30;;;;;;;12.35;3.88;;;;;;;;;;5031172;28;20079;-73
2021/05/11 15:49:56;;;;;;;9.90;2.80;;;;;;;;;;5032887;28;20029;-73
2021/05/11 15:52:22;;;;;;;8.63;3.60;;;;;;;;;;5031146;28;20411;-75
2021/05/11 15:54:49;;;;;;;11.77;3.65;;;;;;;;;;5027814;28;20025;-77
2021/05/11 15:57:15;;;;;;;22.33;4.35;;;;;;;;;;5032225;28;20030;-74
2021/05/11 15:59:41;;;;;;;12.10;3.05;;;;;;;;;;5035435;28;20083;-78
2021/05/11 16:02:07;;;;;;;11.35;3.33;;;;;;;;;;5029793;28;20049;-75
2021/05/11 16:04:34;;;;;;;8.23;2.88;;;;;;;;;;5030431;28;20029;-80
2021/05/11 16:07:00;;;;;;;9.43;4.43;;;;;;;;;;5024681;28;20034;-79
2021/05/11 16:09:26;;;;;;;11.77;3.40;;;;;;;;;;5024260;28;20040;-77
2021/05/11 16:11:52;;;;;;;23.58;3.67;;;;;;;;;;5028666;28;20100;-79
2021/05/11 16:14:18;;;;;;;16.35;4.18;;;;;;;;;;5030908;28;20434;-75
2021/05/11 16:16:44;;;;;;;22.02;3.47;;;;;;;;;;5031339;28;20057;-78
2021/05/11 16:19:10;;;;;;;16.40;3.75;;;;;;;;;;5029943;28;20631;-80
2021/05/11 16:21:36;;;;;;;8.20;3.05;;;;;;;;;;5031236;28;20037;-82
2021/05/11 16:24:03;;;;;;;7.50;2.90;;;;;;;;;;5010435;28;20387;-81
2021/05/11 16:26:29;;;;;;;11.43;3.00;;;;;;;;;;5031692;28;20030;-82
2021/05/11 16:28:55;;;;;;;18.85;3.35;;;;;;;;;;5028681;28;20026;-80
2021/05/11 16:31:22;;;;;;;12.80;3.20;;;;;;;;;;5029794;28;20510;-77
2021/05/11 16:33:48;;;;;;;14.90;3.20;;;;;;;;;;5029464;28;20029;-80
2021/05/11 16:36:14;;;;;;;8.20;2.78;;;;;;;;;;5037197;28;20037;-81
2021/05/11 16:38:40;;;;;;;14.88;2.88;;;;;;;;;;5034345;28;20044;-78
2021/05/11 16:41:09;;;;;;;12.82;3.10;;;;;;;;;;5034360;28;20026;-75
2021/05/11 16:43:35;;;;;;;10.88;3.25;;;;;;;;;;5032550;28;20052;-75
2021/05/11 16:46:03;;;;;;;15.55;3.83;;;;;;;;;;5031812;28;20064;-77
2021/05/11 16:48:30;;;;;;;9.05;3.30;;;;;;;;;;5030021;28;20026;-75
2021/05/11 16:50:56;;;;;;;7.78;3.50;;;;;;;;;;5032704;28;20513;-78
2021/05/11 16:53:22;;;;;;;10.95;3.28;;;;;;;;;;5033292;28;20030;-74
2021/05/11 16:55:48;;;;;;;14.30;3.60;;;;;;;;;;5030849;28;20021;-74
2021/05/11 16:58:14;;;;;;;17.50;3.45;;;;;;;;;;5025723;28;20025;-75
2021/05/11 17:00:41;;;;;;;7.88;2.92;;;;;;;;;;5030777;28;20025;-76
2021/05/11 17:03:07;;;;;;;14.25;3.17;;;;;;;;;;5028461;28;20025;-77
2021/05/11 17:05:34;;;;;;;16.42;3.10;;;;;;;;;;5015235;28;20051;-79
2021/05/11 17:08:01;;;;;;;18.45;3.60;;;;;;;;;;5030743;28;20096;-76
2021/05/11 17:10:28;;;;;;;12.82;3.63;;;;;;;;;;5030516;28;20036;-76
2021/05/11 17:12:55;;;;;;;9.88;3.53;;;;;;;;;;5025319;28;20109;-76
2021/05/11 17:15:22;;;;;;;14.10;3.28;;;;;;;;;;5029476;28;20021;-75
2021/05/11 17:17:48;;;;;;;12.05;3.42;;;;;;;;;;5032190;28;20382;-79
2021/05/11 17:20:15;;;;;;;19.83;3.70;;;;;;;;;;5027863;28;20026;-76
2021/05/11 17:22:41;;;;;;;11.27;3.72;;;;;;;;;;5026862;28;20033;-76
2021/05/11 17:25:08;;;;;;;8.82;3.70;;;;;;;;;;5023218;28;20498;-75
2021/05/11 17:27:34;;;;;;;12.50;3.90;;;;;;;;;;5018401;28;20069;-74
2021/05/11 17:30:02;;;;;;;13.70;3.83;;;;;;;;;;5025300;28;20025;-77
2021/05/11 17:32:32;;;;;;;16.05;3.70;;;;;;;;;;5032814;28;20041;-75
2021/05/11 17:34:58;;;;;;;10.95;3.40;;;;;;;;;;5030783;28;20064;-76
2021/05/11 17:37:25;;;;;;;8.10;3.97;;;;;;;;;;5032195;28;20550;-77
2021/05/11 17:39:51;;;;;;;18.75;4.03;;;;;;;;;;5029276;28;20018;-75
2021/05/11 17:42:18;;;;;;;8.02;3.45;;;;;;;;;;5019380;28;20030;-75
2021/05/11 17:44:44;;;;;;;10.63;3.72;;;;;;;;;;5031746;28;20403;-75
2021/05/11 17:47:12;;;;;;;14.30;3.65;;;;;;;;;;5030352;28;20029;-77
2021/05/11 17:49:38;;;;;;;9.75;3.80;;;;;;;;;;5031112;28;20055;-77
2021/05/11 17:52:05;;;;;;;9.07;3.97;;;;;;;;;;5032143;28;20033;-76
2021/05/11 17:54:32;;;;;;;7.40;3.50;;;;;;;;;;5031341;28;20647;-76
2021/05/11 17:56:58;;;;;;;12.48;4.10;;;;;;;;;;5029144;28;20396;-75
2021/05/11 17:59:24;;;;;;;10.75;3.88;;;;;;;;;;5029197;28;20076;-77
2021/05/11 18:01:50;;;;;;;13.45;3.90;;;;;;;;;;5031164;28;20025;-75
2021/05/11 18:04:16;;;;;;;9.90;3.72;;;;;;;;;;5027315;28;20083;-71
2021/05/11 18:06:42;;;;;;;12.35;3.80;;;;;;;;;;5024245;28;20030;-77
2021/05/11 18:09:09;;;;;;;7.65;3.90;;;;;;;;;;5032195;28;20123;-71
2021/05/11 18:11:36;;;;;;;9.13;3.60;;;;;;;;;;5027656;28;20029;-75
2021/05/11 18:14:02;;;;;;;6.57;3.67;;;;;;;;;;5029527;28;20021;-75
2021/05/11 18:16:28;;;;;;;10.15;3.78;;;;;;;;;;5031107;28;20033;-75
2021/05/11 18:18:54;;;;;;;9.07;3.75;;;;;;;;;;5027304;28;20162;-75
2021/05/11 18:21:20;;;;;;;10.25;3.38;;;;;;;;;;5031973;28;20520;-75
2021/05/11 18:23:46;;;;;;;11.82;3.65;;;;;;;;;;5034766;28;20100;-75
2021/05/11 18:26:12;;;;;;;9.88;3.50;;;;;;;;;;5036214;28;20049;-75
2021/05/11 18:28:40;;;;;;;14.80;3.55;;;;;;;;;;5039741;28;20021;-76
2021/05/11 18:31:06;;;;;;;12.73;3.58;;;;;;;;;;5035620;28;20036;-79
2021/05/11 18:33:34;;;;;;;11.85;3.47;;;;;;;;;;5033456;28;20028;-78
2021/05/11 18:36:02;;;;;;;9.48;3.78;;;;;;;;;;5035202;28;20030;-79
2021/05/11 18:38:31;;;;;;;13.65;5.95;;;;;;;;;;5033121;28;20048;-86
2021/05/11 18:40:58;;;;;;;9.98;3.40;;;;;;;;;;5033845;28;20014;-80
2021/05/11 18:43:24;;;;;;;6.30;3.38;;;;;;;;;;5012444;28;20029;-80
2021/05/11 18:45:53;;;;;;;6.65;3.25;;;;;;;;;;5028707;28;20028;-89
2021/05/11 18:48:19;;;;;;;17.77;3.53;;;;;;;;;;5034625;28;20031;-86
2021/05/11 18:50:45;;;;;;;15.10;3.90;;;;;;;;;;5034787;28;20025;-83
2021/05/11 18:53:11;;;;;;;11.02;3.63;;;;;;;;;;5033765;28;20044;-77
2021/05/11 18:55:39;;;;;;;12.80;4.20;;;;;;;;;;5033741;28;20049;-74
2021/05/11 18:58:05;;;;;;;9.30;4.30;;;;;;;;;;5035740;28;20028;-75
2021/05/11 19:00:32;;;;;;;10.80;3.97;;;;;;;;;;5034132;28;20032;-87
2021/05/11 19:03:01;;;;;;;8.55;3.63;;;;;;;;;;5017545;28;20482;-79
2021/05/11 19:05:27;;;;;;;12.85;3.10;;;;;;;;;;5038335;28;20091;-81
2021/05/11 19:07:54;;;;;;;8.57;3.30;;;;;;;;;;5039351;28;20037;-75
2021/05/11 19:10:20;;;;;;;7.45;3.03;;;;;;;;;;5031349;28;20386;-73
2021/05/11 19:12:46;;;;;;;6.95;3.30;;;;;;;;;;5031362;28;20029;-85
2021/05/11 19:15:13;;;;;;;13.32;3.15;;;;;;;;;;5031455;28;20052;-76
2021/05/11 19:17:40;;;;;;;5.30;2.75;;;;;;;;;;5037339;28;20048;-79